sensor_id;sensor_type;location;lat;lon;timestamp;pressure;altitude;pressure_sealevel;temperature;humidity
34566;BME280;20803;42.676;26.348;2022-08-21T00:00:51;98049.94;;;23.72;76.85
34566;BME280;20803;42.676;26.348;2022-08-21T00:03:17;98041.13;;;23.81;76.27
34566;BME280;20803;42.676;26.348;2022-08-21T00:05:50;98039.56;;;23.85;75.72
34566;BME280;20803;42.676;26.348;2022-08-21T00:08:17;98035.44;;;23.86;75.12
34566;BME280;20803;42.676;26.348;2022-08-21T00:10:43;98038.03;;;23.90;74.02
34566;BME280;20803;42.676;26.348;2022-08-21T00:13:10;98036.75;;;23.74;75.53
34566;BME280;20803;42.676;26.348;2022-08-21T00:15:36;98034.44;;;23.67;74.97
34566;BME280;20803;42.676;26.348;2022-08-21T00:18:04;98028.78;;;23.67;74.62
34566;BME280;20803;42.676;26.348;2022-08-21T00:20:30;98029.53;;;23.73;73.79
34566;BME280;20803;42.676;26.348;2022-08-21T00:22:56;98022.06;;;23.76;73.96
34566;BME280;20803;42.676;26.348;2022-08-21T00:25:21;98023.84;;;23.79;75.03
34566;BME280;20803;42.676;26.348;2022-08-21T00:27:47;98027.19;;;23.89;73.86
34566;BME280;20803;42.676;26.348;2022-08-21T00:30:15;98027.19;;;23.94;74.84
34566;BME280;20803;42.676;26.348;2022-08-21T00:32:42;98029.53;;;23.84;74.86
34566;BME280;20803;42.676;26.348;2022-08-21T00:35:12;98017.16;;;23.82;75.90
34566;BME280;20803;42.676;26.348;2022-08-21T00:37:39;98020.03;;;23.71;75.70
34566;BME280;20803;42.676;26.348;2022-08-21T00:40:07;98007.38;;;23.72;75.88
34566;BME280;20803;42.676;26.348;2022-08-21T00:42:34;98014.59;;;23.67;76.37
34566;BME280;20803;42.676;26.348;2022-08-21T00:45:00;98004.28;;;23.64;75.75
34566;BME280;20803;42.676;26.348;2022-08-21T00:47:25;97999.13;;;23.63;75.67
34566;BME280;20803;42.676;26.348;2022-08-21T00:49:51;98003.78;;;23.55;76.21
34566;BME280;20803;42.676;26.348;2022-08-21T00:52:22;97994.25;;;23.52;76.69
34566;BME280;20803;42.676;26.348;2022-08-21T00:54:50;97991.91;;;23.62;76.55
34566;BME280;20803;42.676;26.348;2022-08-21T00:57:20;97991.38;;;23.74;76.51
34566;BME280;20803;42.676;26.348;2022-08-21T00:59:49;97983.38;;;23.84;74.56
34566;BME280;20803;42.676;26.348;2022-08-21T01:02:17;97977.16;;;23.80;75.78
34566;BME280;20803;42.676;26.348;2022-08-21T01:04:45;97978.47;;;23.84;74.37
34566;BME280;20803;42.676;26.348;2022-08-21T01:07:10;97973.31;;;23.83;74.77
34566;BME280;20803;42.676;26.348;2022-08-21T01:09:36;97975.63;;;23.79;74.58
34566;BME280;20803;42.676;26.348;2022-08-21T01:12:03;97968.41;;;23.78;74.63
34566;BME280;20803;42.676;26.348;2022-08-21T01:14:29;97975.88;;;23.81;75.41
34566;BME280;20803;42.676;26.348;2022-08-21T01:16:56;97977.94;;;23.80;76.05
34566;BME280;20803;42.676;26.348;2022-08-21T01:19:23;97968.41;;;23.83;75.99
34566;BME280;20803;42.676;26.348;2022-08-21T01:21:49;97957.28;;;23.85;76.34
34566;BME280;20803;42.676;26.348;2022-08-21T01:24:15;97969.19;;;23.84;76.78
34566;BME280;20803;42.676;26.348;2022-08-21T01:26:41;97963.25;;;23.76;76.34
34566;BME280;20803;42.676;26.348;2022-08-21T01:31:32;97944.19;;;23.71;77.02
34566;BME280;20803;42.676;26.348;2022-08-21T01:33:59;97940.63;;;23.60;75.79
34566;BME280;20803;42.676;26.348;2022-08-21T01:36:25;97947.06;;;23.60;76.30
34566;BME280;20803;42.676;26.348;2022-08-21T01:38:51;97948.09;;;23.52;78.90
34566;BME280;20803;42.676;26.348;2022-08-21T01:41:16;97954.28;;;23.56;77.99
34566;BME280;20803;42.676;26.348;2022-08-21T01:43:43;97946.81;;;23.58;77.37
34566;BME280;20803;42.676;26.348;2022-08-21T01:46:10;97945.25;;;23.57;77.14
34566;BME280;20803;42.676;26.348;2022-08-21T01:48:37;97946.56;;;23.51;76.89
34566;BME280;20803;42.676;26.348;2022-08-21T01:51:04;97949.91;;;23.49;78.20
34566;BME280;20803;42.676;26.348;2022-08-21T01:53:29;97948.34;;;23.42;78.27
34566;BME280;20803;42.676;26.348;2022-08-21T01:55:55;97936.00;;;23.40;78.66
34566;BME280;20803;42.676;26.348;2022-08-21T01:58:21;97945.00;;;23.38;79.63
34566;BME280;20803;42.676;26.348;2022-08-21T02:00:47;97941.91;;;23.42;79.27
34566;BME280;20803;42.676;26.348;2022-08-21T02:03:12;97950.44;;;23.42;78.35
34566;BME280;20803;42.676;26.348;2022-08-21T02:05:38;97941.38;;;23.43;77.48
34566;BME280;20803;42.676;26.348;2022-08-21T02:08:05;97947.06;;;23.43;77.75
34566;BME280;20803;42.676;26.348;2022-08-21T02:10:31;97942.66;;;23.42;77.14
34566;BME280;20803;42.676;26.348;2022-08-21T02:12:57;97942.94;;;23.44;76.92
34566;BME280;20803;42.676;26.348;2022-08-21T02:15:25;97943.69;;;23.45;76.30
34566;BME280;20803;42.676;26.348;2022-08-21T02:17:54;97940.38;;;23.41;77.37
34566;BME280;20803;42.676;26.348;2022-08-21T02:22:52;97943.75;;;23.28;77.52
34566;BME280;20803;42.676;26.348;2022-08-21T02:25:19;97941.13;;;23.30;77.68
34566;BME280;20803;42.676;26.348;2022-08-21T02:27:46;97936.78;;;23.29;78.01
34566;BME280;20803;42.676;26.348;2022-08-21T02:30:19;97930.59;;;23.25;78.88
34566;BME280;20803;42.676;26.348;2022-08-21T02:32:45;97926.50;;;23.10;80.86
34566;BME280;20803;42.676;26.348;2022-08-21T02:35:11;97923.13;;;23.00;81.22
34566;BME280;20803;42.676;26.348;2022-08-21T02:37:52;97923.66;;;23.04;81.17
34566;BME280;20803;42.676;26.348;2022-08-21T02:40:21;97921.84;;;23.06;79.55
34566;BME280;20803;42.676;26.348;2022-08-21T02:42:47;97929.06;;;23.13;79.12
34566;BME280;20803;42.676;26.348;2022-08-21T02:45:13;97925.97;;;23.11;79.63
34566;BME280;20803;42.676;26.348;2022-08-21T02:47:39;97936.00;;;23.12;78.62
34566;BME280;20803;42.676;26.348;2022-08-21T02:50:07;97933.72;;;23.11;79.51
34566;BME280;20803;42.676;26.348;2022-08-21T02:52:32;97933.44;;;23.14;78.85
34566;BME280;20803;42.676;26.348;2022-08-21T02:55:00;97938.31;;;23.19;77.87
34566;BME280;20803;42.676;26.348;2022-08-21T02:57:25;97935.47;;;23.25;77.47
34566;BME280;20803;42.676;26.348;2022-08-21T02:59:50;97930.06;;;23.27;77.08
34566;BME280;20803;42.676;26.348;2022-08-21T03:02:16;97933.41;;;23.31;76.69
34566;BME280;20803;42.676;26.348;2022-08-21T03:04:41;97926.72;;;23.34;77.31
34566;BME280;20803;42.676;26.348;2022-08-21T03:07:07;97925.22;;;23.11;80.00
34566;BME280;20803;42.676;26.348;2022-08-21T03:09:32;97929.59;;;22.95;81.70
34566;BME280;20803;42.676;26.348;2022-08-21T03:11:57;97927.25;;;22.93;82.30
34566;BME280;20803;42.676;26.348;2022-08-21T03:14:23;97928.03;;;22.94;83.02
34566;BME280;20803;42.676;26.348;2022-08-21T03:16:48;97924.69;;;22.95;84.21
34566;BME280;20803;42.676;26.348;2022-08-21T03:19:15;97926.50;;;22.98;84.18
34566;BME280;20803;42.676;26.348;2022-08-21T03:21:40;97925.72;;;23.03;85.06
34566;BME280;20803;42.676;26.348;2022-08-21T03:24:06;97925.22;;;23.11;85.21
34566;BME280;20803;42.676;26.348;2022-08-21T03:26:32;97922.38;;;23.16;84.32
34566;BME280;20803;42.676;26.348;2022-08-21T03:28:58;97922.09;;;23.20;86.77
34566;BME280;20803;42.676;26.348;2022-08-21T03:31:24;97924.41;;;23.21;85.28
34566;BME280;20803;42.676;26.348;2022-08-21T03:33:54;97935.22;;;23.28;84.20
34566;BME280;20803;42.676;26.348;2022-08-21T03:36:20;97933.69;;;23.27;85.52
34566;BME280;20803;42.676;26.348;2022-08-21T03:38:46;97932.66;;;23.36;85.10
34566;BME280;20803;42.676;26.348;2022-08-21T03:41:11;97935.50;;;23.47;84.93
34566;BME280;20803;42.676;26.348;2022-08-21T03:43:37;97940.38;;;23.52;84.53
34566;BME280;20803;42.676;26.348;2022-08-21T03:46:04;97945.50;;;23.59;84.28
34566;BME280;20803;42.676;26.348;2022-08-21T03:48:31;97948.09;;;23.52;85.31
34566;BME280;20803;42.676;26.348;2022-08-21T03:50:57;97941.16;;;23.53;85.78
34566;BME280;20803;42.676;26.348;2022-08-21T03:53:23;97948.09;;;23.52;86.06
34566;BME280;20803;42.676;26.348;2022-08-21T03:55:51;97948.59;;;23.44;85.31
34566;BME280;20803;42.676;26.348;2022-08-21T03:58:20;97948.88;;;23.35;85.47
34566;BME280;20803;42.676;26.348;2022-08-21T04:00:47;97946.03;;;23.58;84.34
34566;BME280;20803;42.676;26.348;2022-08-21T04:03:14;97943.63;;;23.84;82.99
34566;BME280;20803;42.676;26.348;2022-08-21T04:05:40;97940.44;;;24.04;82.38
34566;BME280;20803;42.676;26.348;2022-08-21T04:08:06;97932.13;;;24.17;82.90
34566;BME280;20803;42.676;26.348;2022-08-21T04:10:34;97941.16;;;24.27;82.99
34566;BME280;20803;42.676;26.348;2022-08-21T04:13:00;97947.56;;;24.27;83.00
34566;BME280;20803;42.676;26.348;2022-08-21T04:15:26;97949.66;;;24.21;83.82
34566;BME280;20803;42.676;26.348;2022-08-21T04:17:52;97959.78;;;24.58;83.02
34566;BME280;20803;42.676;26.348;2022-08-21T04:20:18;97958.56;;;24.94;81.08
34566;BME280;20803;42.676;26.348;2022-08-21T04:22:45;97958.41;;;25.11;79.51
34566;BME280;20803;42.676;26.348;2022-08-21T04:25:12;97961.09;;;24.98;80.90
34566;BME280;20803;42.676;26.348;2022-08-21T04:27:38;97967.41;;;25.45;77.36
34566;BME280;20803;42.676;26.348;2022-08-21T04:30:06;97974.47;;;25.87;75.06
34566;BME280;20803;42.676;26.348;2022-08-21T04:32:32;97989.09;;;26.21;72.80
34566;BME280;20803;42.676;26.348;2022-08-21T04:35:04;98010.69;;;26.35;71.03
34566;BME280;20803;42.676;26.348;2022-08-21T04:37:30;98015.69;;;26.29;70.80
34566;BME280;20803;42.676;26.348;2022-08-21T04:39:55;98007.63;;;26.09;71.57
34566;BME280;20803;42.676;26.348;2022-08-21T04:42:25;98022.09;;;25.86;74.08
34566;BME280;20803;42.676;26.348;2022-08-21T04:44:51;98021.38;;;25.80;75.83
34566;BME280;20803;42.676;26.348;2022-08-21T04:47:16;98027.28;;;25.88;77.36
34566;BME280;20803;42.676;26.348;2022-08-21T04:49:43;98032.19;;;26.36;75.62
34566;BME280;20803;42.676;26.348;2022-08-21T04:52:08;98032.44;;;26.76;73.83
34566;BME280;20803;42.676;26.348;2022-08-21T04:54:34;98043.06;;;27.31;71.22
34566;BME280;20803;42.676;26.348;2022-08-21T04:57:05;98031.63;;;27.63;68.93
34566;BME280;20803;42.676;26.348;2022-08-21T04:59:39;98039.25;;;27.74;68.71
34566;BME280;20803;42.676;26.348;2022-08-21T05:02:06;98031.84;;;28.23;66.53
34566;BME280;20803;42.676;26.348;2022-08-21T05:04:37;98037.19;;;28.53;64.76
34566;BME280;20803;42.676;26.348;2022-08-21T05:07:09;98030.13;;;28.81;64.07
34566;BME280;20803;42.676;26.348;2022-08-21T05:09:37;98022.97;;;29.42;61.05
34566;BME280;20803;42.676;26.348;2022-08-21T05:12:03;98024.97;;;29.75;58.75
34566;BME280;20803;42.676;26.348;2022-08-21T05:14:29;98020.56;;;29.95;57.50
34566;BME280;20803;42.676;26.348;2022-08-21T05:16:55;98029.38;;;29.97;57.14
34566;BME280;20803;42.676;26.348;2022-08-21T05:19:20;98018.31;;;30.01;56.78
34566;BME280;20803;42.676;26.348;2022-08-21T05:21:46;98023.75;;;29.42;57.81
34566;BME280;20803;42.676;26.348;2022-08-21T05:24:15;98018.78;;;29.64;57.85
34566;BME280;20803;42.676;26.348;2022-08-21T05:26:41;98021.22;;;29.39;58.63
34566;BME280;20803;42.676;26.348;2022-08-21T05:29:07;98017.09;;;29.48;58.74
34566;BME280;20803;42.676;26.348;2022-08-21T05:31:33;98019.66;;;29.59;58.39
34566;BME280;20803;42.676;26.348;2022-08-21T05:33:58;98024.69;;;29.66;58.79
34566;BME280;20803;42.676;26.348;2022-08-21T05:36:24;98017.25;;;30.12;58.07
34566;BME280;20803;42.676;26.348;2022-08-21T05:38:49;98017.53;;;30.65;55.30
34566;BME280;20803;42.676;26.348;2022-08-21T05:41:15;98018.81;;;31.00;54.35
34566;BME280;20803;42.676;26.348;2022-08-21T05:43:40;98021.75;;;30.00;55.53
34566;BME280;20803;42.676;26.348;2022-08-21T05:46:07;98019.47;;;29.57;58.41
34566;BME280;20803;42.676;26.348;2022-08-21T05:48:34;98022.09;;;29.96;57.07
34566;BME280;20803;42.676;26.348;2022-08-21T05:51:05;98023.84;;;31.07;52.57
34566;BME280;20803;42.676;26.348;2022-08-21T05:53:31;98017.75;;;31.49;51.03
34566;BME280;20803;42.676;26.348;2022-08-21T05:55:56;98028.88;;;31.44;50.96
34566;BME280;20803;42.676;26.348;2022-08-21T05:58:22;98034.22;;;31.33;50.86
34566;BME280;20803;42.676;26.348;2022-08-21T06:00:51;98036.47;;;31.04;51.61
34566;BME280;20803;42.676;26.348;2022-08-21T06:03:20;98031.78;;;30.86;52.09
34566;BME280;20803;42.676;26.348;2022-08-21T06:05:47;98037.19;;;30.97;52.09
34566;BME280;20803;42.676;26.348;2022-08-21T06:08:14;98039.06;;;31.61;50.70
34566;BME280;20803;42.676;26.348;2022-08-21T06:10:40;98037.31;;;32.11;48.67
34566;BME280;20803;42.676;26.348;2022-08-21T06:13:05;98044.38;;;32.40;48.26
34566;BME280;20803;42.676;26.348;2022-08-21T06:15:31;98041.34;;;32.93;47.02
34566;BME280;20803;42.676;26.348;2022-08-21T06:17:56;98043.22;;;33.38;45.51
34566;BME280;20803;42.676;26.348;2022-08-21T06:20:22;98036.34;;;32.94;46.20
34566;BME280;20803;42.676;26.348;2022-08-21T06:22:48;98032.72;;;32.93;45.52
34566;BME280;20803;42.676;26.348;2022-08-21T06:25:14;98044.72;;;32.52;45.93
34566;BME280;20803;42.676;26.348;2022-08-21T06:27:39;98043.63;;;32.09;47.34
34566;BME280;20803;42.676;26.348;2022-08-21T06:30:06;98030.81;;;32.18;46.94
34566;BME280;20803;42.676;26.348;2022-08-21T06:32:32;98030.25;;;32.19;46.70
34566;BME280;20803;42.676;26.348;2022-08-21T06:34:57;98033.53;;;32.79;45.34
34566;BME280;20803;42.676;26.348;2022-08-21T06:37:23;98030.91;;;33.06;44.40
34566;BME280;20803;42.676;26.348;2022-08-21T06:39:48;98037.94;;;32.80;45.08
34566;BME280;20803;42.676;26.348;2022-08-21T06:42:15;98041.06;;;32.74;44.79
34566;BME280;20803;42.676;26.348;2022-08-21T06:44:41;98046.31;;;31.54;47.45
34566;BME280;20803;42.676;26.348;2022-08-21T06:47:07;98039.25;;;31.93;46.98
34566;BME280;20803;42.676;26.348;2022-08-21T06:49:33;98039.66;;;31.59;46.03
34566;BME280;20803;42.676;26.348;2022-08-21T06:51:58;98040.88;;;30.61;49.07
34566;BME280;20803;42.676;26.348;2022-08-21T06:54:24;98036.34;;;32.08;45.68
34566;BME280;20803;42.676;26.348;2022-08-21T06:56:49;98038.25;;;32.44;44.69
34566;BME280;20803;42.676;26.348;2022-08-21T06:59:15;98033.25;;;32.44;44.63
34566;BME280;20803;42.676;26.348;2022-08-21T07:01:40;98032.53;;;32.06;44.57
34566;BME280;20803;42.676;26.348;2022-08-21T07:04:06;98026.06;;;31.82;46.34
34566;BME280;20803;42.676;26.348;2022-08-21T07:06:32;98020.06;;;31.42;46.29
34566;BME280;20803;42.676;26.348;2022-08-21T07:08:58;98018.00;;;31.73;45.62
34566;BME280;20803;42.676;26.348;2022-08-21T07:11:24;98024.69;;;31.53;46.47
34566;BME280;20803;42.676;26.348;2022-08-21T07:13:51;98015.09;;;31.96;45.73
34566;BME280;20803;42.676;26.348;2022-08-21T07:16:18;98012.59;;;32.23;44.36
34566;BME280;20803;42.676;26.348;2022-08-21T07:18:44;98010.81;;;32.43;44.09
34566;BME280;20803;42.676;26.348;2022-08-21T07:21:10;98012.81;;;31.79;45.22
34566;BME280;20803;42.676;26.348;2022-08-21T07:23:49;98009.34;;;32.11;45.00
34566;BME280;20803;42.676;26.348;2022-08-21T07:26:18;97999.59;;;31.84;46.03
34566;BME280;20803;42.676;26.348;2022-08-21T07:28:44;97999.78;;;31.78;45.64
34566;BME280;20803;42.676;26.348;2022-08-21T07:31:10;97998.22;;;32.08;45.06
34566;BME280;20803;42.676;26.348;2022-08-21T07:33:39;98000.56;;;31.94;44.14
34566;BME280;20803;42.676;26.348;2022-08-21T07:36:04;97985.91;;;32.38;44.31
34566;BME280;20803;42.676;26.348;2022-08-21T07:38:30;97993.53;;;32.50;43.55
34566;BME280;20803;42.676;26.348;2022-08-21T07:40:57;97983.47;;;32.19;43.78
34566;BME280;20803;42.676;26.348;2022-08-21T07:43:24;97982.69;;;32.11;43.73
34566;BME280;20803;42.676;26.348;2022-08-21T07:45:50;97980.81;;;32.61;42.82
34566;BME280;20803;42.676;26.348;2022-08-21T07:48:16;97977.03;;;32.51;43.51
34566;BME280;20803;42.676;26.348;2022-08-21T07:50:42;97969.38;;;32.46;42.69
34566;BME280;20803;42.676;26.348;2022-08-21T07:53:08;97978.44;;;32.82;41.59
34566;BME280;20803;42.676;26.348;2022-08-21T07:55:34;97970.03;;;32.21;43.09
34566;BME280;20803;42.676;26.348;2022-08-21T07:57:59;97966.72;;;32.33;42.46
34566;BME280;20803;42.676;26.348;2022-08-21T08:00:27;97963.69;;;32.23;42.51
34566;BME280;20803;42.676;26.348;2022-08-21T08:02:54;97959.31;;;32.14;43.73
34566;BME280;20803;42.676;26.348;2022-08-21T08:05:24;97956.31;;;31.90;43.67
34566;BME280;20803;42.676;26.348;2022-08-21T08:07:50;97963.56;;;32.13;43.20
34566;BME280;20803;42.676;26.348;2022-08-21T08:10:17;97956.84;;;32.58;42.77
34566;BME280;20803;42.676;26.348;2022-08-21T08:12:44;97958.78;;;32.96;41.46
34566;BME280;20803;42.676;26.348;2022-08-21T08:15:14;97957.91;;;32.86;41.48
34566;BME280;20803;42.676;26.348;2022-08-21T08:17:40;97951.13;;;32.91;41.73
34566;BME280;20803;42.676;26.348;2022-08-21T08:20:07;97954.44;;;33.20;41.12
34566;BME280;20803;42.676;26.348;2022-08-21T08:22:37;97951.06;;;32.11;43.60
34566;BME280;20803;42.676;26.348;2022-08-21T08:25:05;97948.03;;;32.96;42.70
34566;BME280;20803;42.676;26.348;2022-08-21T08:27:31;97944.81;;;32.92;41.13
34566;BME280;20803;42.676;26.348;2022-08-21T08:29:56;97935.44;;;32.44;41.92
34566;BME280;20803;42.676;26.348;2022-08-21T08:32:22;97941.38;;;31.76;43.57
34566;BME280;20803;42.676;26.348;2022-08-21T08:34:48;97936.31;;;32.14;42.53
34566;BME280;20803;42.676;26.348;2022-08-21T08:37:14;97927.91;;;31.94;44.11
34566;BME280;20803;42.676;26.348;2022-08-21T08:39:40;97932.03;;;32.78;42.32
34566;BME280;20803;42.676;26.348;2022-08-21T08:42:15;97929.06;;;32.93;41.76
34566;BME280;20803;42.676;26.348;2022-08-21T08:44:43;97924.75;;;33.34;40.67
34566;BME280;20803;42.676;26.348;2022-08-21T08:47:13;97919.16;;;32.79;40.70
34566;BME280;20803;42.676;26.348;2022-08-21T08:49:47;97913.22;;;33.34;40.83
34566;BME280;20803;42.676;26.348;2022-08-21T08:52:45;97923.09;;;34.08;39.56
34566;BME280;20803;42.676;26.348;2022-08-21T08:55:16;97914.09;;;34.04;38.91
34566;BME280;20803;42.676;26.348;2022-08-21T08:57:45;97911.81;;;33.85;40.43
34566;BME280;20803;42.676;26.348;2022-08-21T09:00:13;97905.72;;;33.56;40.14
34566;BME280;20803;42.676;26.348;2022-08-21T09:02:40;97906.19;;;32.95;39.95
34566;BME280;20803;42.676;26.348;2022-08-21T09:05:07;97899.06;;;32.72;40.70
34566;BME280;20803;42.676;26.348;2022-08-21T09:07:48;97883.63;;;33.09;40.38
34566;BME280;20803;42.676;26.348;2022-08-21T09:10:22;97892.31;;;32.37;41.27
34566;BME280;20803;42.676;26.348;2022-08-21T09:16:05;97890.72;;;32.83;41.00
34566;BME280;20803;42.676;26.348;2022-08-21T09:21:41;97881.50;;;33.59;39.75
34566;BME280;20803;42.676;26.348;2022-08-21T09:27:11;97873.06;;;33.96;38.95
34566;BME280;20803;42.676;26.348;2022-08-21T09:29:40;97876.13;;;33.56;39.04
34566;BME280;20803;42.676;26.348;2022-08-21T09:32:16;97865.56;;;34.10;37.83
34566;BME280;20803;42.676;26.348;2022-08-21T09:35:02;97861.13;;;34.43;36.79
34566;BME280;20803;42.676;26.348;2022-08-21T09:37:30;97861.06;;;33.48;39.10
34566;BME280;20803;42.676;26.348;2022-08-21T09:39:57;97857.03;;;33.85;38.45
34566;BME280;20803;42.676;26.348;2022-08-21T09:42:29;97871.06;;;33.64;37.83
34566;BME280;20803;42.676;26.348;2022-08-21T09:45:13;97856.19;;;33.33;38.76
34566;BME280;20803;42.676;26.348;2022-08-21T09:47:40;97861.66;;;33.63;38.16
34566;BME280;20803;42.676;26.348;2022-08-21T09:50:20;97848.75;;;33.30;37.92
34566;BME280;20803;42.676;26.348;2022-08-21T09:52:55;97862.22;;;33.45;37.04
34566;BME280;20803;42.676;26.348;2022-08-21T09:55:33;97853.75;;;33.47;37.38
34566;BME280;20803;42.676;26.348;2022-08-21T09:58:18;97849.78;;;33.17;37.95
34566;BME280;20803;42.676;26.348;2022-08-21T10:00:45;97857.28;;;33.37;36.66
34566;BME280;20803;42.676;26.348;2022-08-21T10:03:21;97842.88;;;33.20;37.99
34566;BME280;20803;42.676;26.348;2022-08-21T10:06:01;97848.56;;;33.03;36.40
34566;BME280;20803;42.676;26.348;2022-08-21T10:08:32;97852.34;;;32.56;37.81
34566;BME280;20803;42.676;26.348;2022-08-21T10:11:05;97848.69;;;32.55;37.59
34566;BME280;20803;42.676;26.348;2022-08-21T10:25:06;97846.38;;;32.54;38.61
34566;BME280;20803;42.676;26.348;2022-08-21T10:30:13;97832.81;;;32.79;38.66
34566;BME280;20803;42.676;26.348;2022-08-21T10:35:28;97825.91;;;33.24;38.12
34566;BME280;20803;42.676;26.348;2022-08-21T10:38:35;97832.38;;;33.08;37.98
34566;BME280;20803;42.676;26.348;2022-08-21T11:00:06;97818.09;;;33.59;36.77
34566;BME280;20803;42.676;26.348;2022-08-21T11:08:00;97795.31;;;32.62;38.54
34566;BME280;20803;42.676;26.348;2022-08-21T11:13:38;97786.25;;;32.73;38.29
34566;BME280;20803;42.676;26.348;2022-08-21T11:16:13;97784.56;;;32.62;38.36
34566;BME280;20803;42.676;26.348;2022-08-21T11:18:49;97784.56;;;32.38;38.72
34566;BME280;20803;42.676;26.348;2022-08-21T11:21:39;97776.72;;;32.63;41.23
34566;BME280;20803;42.676;26.348;2022-08-21T11:27:26;97777.34;;;32.21;39.31
34566;BME280;20803;42.676;26.348;2022-08-21T11:29:56;97773.09;;;31.90;39.80
34566;BME280;20803;42.676;26.348;2022-08-21T11:40:39;97755.31;;;32.49;38.35
34566;BME280;20803;42.676;26.348;2022-08-21T11:46:41;97741.28;;;31.96;39.01
34566;BME280;20803;42.676;26.348;2022-08-21T11:55:05;97739.25;;;31.18;40.78
34566;BME280;20803;42.676;26.348;2022-08-21T11:57:57;97723.38;;;31.02;41.25
34566;BME280;20803;42.676;26.348;2022-08-21T12:00:35;97741.66;;;31.44;40.18
34566;BME280;20803;42.676;26.348;2022-08-21T12:06:10;97742.44;;;31.37;41.25
34566;BME280;20803;42.676;26.348;2022-08-21T12:08:39;97732.50;;;31.31;40.68
34566;BME280;20803;42.676;26.348;2022-08-21T12:16:41;97723.41;;;31.65;40.37
34566;BME280;20803;42.676;26.348;2022-08-21T12:19:28;97725.13;;;31.68;39.99
34566;BME280;20803;42.676;26.348;2022-08-21T12:24:45;97712.63;;;32.13;38.97
34566;BME280;20803;42.676;26.348;2022-08-21T12:27:41;97712.13;;;32.32;39.36
34566;BME280;20803;42.676;26.348;2022-08-21T12:30:34;97716.44;;;32.15;40.32
34566;BME280;20803;42.676;26.348;2022-08-21T12:33:09;97718.31;;;32.45;39.14
34566;BME280;20803;42.676;26.348;2022-08-21T12:35:43;97718.75;;;32.09;39.72
34566;BME280;20803;42.676;26.348;2022-08-21T12:38:31;97730.19;;;31.84;39.76
34566;BME280;20803;42.676;26.348;2022-08-21T12:41:06;97725.25;;;32.17;39.89
34566;BME280;20803;42.676;26.348;2022-08-21T12:43:41;97722.09;;;32.55;38.76
34566;BME280;20803;42.676;26.348;2022-08-21T12:46:20;97726.84;;;33.02;38.17
34566;BME280;20803;42.676;26.348;2022-08-21T12:51:50;97728.97;;;32.35;39.02
34566;BME280;20803;42.676;26.348;2022-08-21T12:54:28;97727.16;;;32.72;38.43
34566;BME280;20803;42.676;26.348;2022-08-21T12:57:00;97722.25;;;32.82;40.12
34566;BME280;20803;42.676;26.348;2022-08-21T12:59:26;97724.72;;;32.86;41.17
34566;BME280;20803;42.676;26.348;2022-08-21T13:01:52;97721.16;;;32.95;41.53
34566;BME280;20803;42.676;26.348;2022-08-21T13:04:25;97721.06;;;32.68;42.69
34566;BME280;20803;42.676;26.348;2022-08-21T13:06:54;97715.69;;;32.40;42.38
34566;BME280;20803;42.676;26.348;2022-08-21T13:09:27;97721.63;;;32.42;42.39
34566;BME280;20803;42.676;26.348;2022-08-21T13:11:53;97723.44;;;32.54;42.30
34566;BME280;20803;42.676;26.348;2022-08-21T13:14:33;97717.97;;;32.41;42.78
34566;BME280;20803;42.676;26.348;2022-08-21T13:17:00;97724.03;;;32.53;42.41
34566;BME280;20803;42.676;26.348;2022-08-21T13:19:30;97723.25;;;32.52;42.63
34566;BME280;20803;42.676;26.348;2022-08-21T13:21:57;97717.63;;;32.37;42.22
34566;BME280;20803;42.676;26.348;2022-08-21T13:24:24;97712.03;;;32.39;42.15
34566;BME280;20803;42.676;26.348;2022-08-21T13:26:51;97710.31;;;32.11;43.62
34566;BME280;20803;42.676;26.348;2022-08-21T13:29:20;97703.41;;;32.14;42.80
34566;BME280;20803;42.676;26.348;2022-08-21T13:31:58;97698.78;;;32.44;42.59
34566;BME280;20803;42.676;26.348;2022-08-21T13:34:29;97685.19;;;32.44;42.87
34566;BME280;20803;42.676;26.348;2022-08-21T13:36:59;97683.03;;;32.70;42.34
34566;BME280;20803;42.676;26.348;2022-08-21T13:39:25;97681.22;;;33.16;41.48
34566;BME280;20803;42.676;26.348;2022-08-21T13:41:54;97669.28;;;32.85;41.86
34566;BME280;20803;42.676;26.348;2022-08-21T13:44:23;97663.44;;;32.93;41.56
34566;BME280;20803;42.676;26.348;2022-08-21T13:46:52;97658.34;;;32.67;41.53
34566;BME280;20803;42.676;26.348;2022-08-21T13:49:26;97663.63;;;32.28;43.25
34566;BME280;20803;42.676;26.348;2022-08-21T13:51:54;97654.00;;;32.33;42.36
34566;BME280;20803;42.676;26.348;2022-08-21T13:54:21;97656.69;;;32.56;41.81
34566;BME280;20803;42.676;26.348;2022-08-21T13:56:48;97665.31;;;32.06;42.92
34566;BME280;20803;42.676;26.348;2022-08-21T13:59:30;97659.31;;;32.19;42.42
34566;BME280;20803;42.676;26.348;2022-08-21T14:01:59;97663.44;;;31.69;43.18
34566;BME280;20803;42.676;26.348;2022-08-21T14:04:33;97665.34;;;31.66;43.21
34566;BME280;20803;42.676;26.348;2022-08-21T14:07:02;97667.25;;;31.71;43.52
34566;BME280;20803;42.676;26.348;2022-08-21T14:09:34;97671.53;;;31.55;42.99
34566;BME280;20803;42.676;26.348;2022-08-21T14:12:04;97679.38;;;31.62;42.97
34566;BME280;20803;42.676;26.348;2022-08-21T14:14:38;97681.81;;;31.66;42.79
34566;BME280;20803;42.676;26.348;2022-08-21T14:17:07;97694.13;;;31.91;42.29
34566;BME280;20803;42.676;26.348;2022-08-21T14:19:43;97711.66;;;31.78;42.36
34566;BME280;20803;42.676;26.348;2022-08-21T14:25:07;97725.06;;;31.28;43.72
34566;BME280;20803;42.676;26.348;2022-08-21T14:27:35;97723.34;;;31.17;43.38
34566;BME280;20803;42.676;26.348;2022-08-21T14:30:17;97754.28;;;31.41;42.51
34566;BME280;20803;42.676;26.348;2022-08-21T14:32:44;97749.94;;;30.34;47.11
34566;BME280;20803;42.676;26.348;2022-08-21T14:35:10;97739.00;;;29.15;50.83